Eufaula, Oklahoma
Current Conditions -  °F | °C
As of 11:35 AM on Saturday 20 Dec 2014 (Local Time) from KGZL Reporting Station
Haze Haze  
Wind Chill: 45°   Ceiling: 1500
Heat Index: 45°   Visibility: 5mi
Dew Point: 43°   Wind: 0mph
Humidity: 93%   Direction: NA
Pressure: 30.24"   Gusts: NA
Location:  35.29°N, 95.58°W
Report Text: KGZL 201735Z AUTO 00000KT 5SM BR FEW006 OVC015 07/06 A3024 RMK AO2
Loading
Personal Weather Stations






























Interactive Weather Map New forecast layout! Learn more

10-Day Weather Forecast

Advertisements
Track Severe Weather on mobile